sensor_id;sensor_type;location;lat;lon;timestamp;P1;durP1;ratioP1;P2;durP2;ratioP2
9997;SDS011;5038;53.064;8.624;2023-03-14T00:00:28;7.33;;;4.10;;
9997;SDS011;5038;53.064;8.624;2023-03-14T00:02:57;10.70;;;4.57;;
9997;SDS011;5038;53.064;8.624;2023-03-14T00:05:25;10.30;;;4.50;;
9997;SDS011;5038;53.064;8.624;2023-03-14T00:07:54;12.43;;;4.57;;
9997;SDS011;5038;53.064;8.624;2023-03-14T00:10:22;11.00;;;4.60;;
9997;SDS011;5038;53.064;8.624;2023-03-14T00:12:50;11.10;;;4.00;;
9997;SDS011;5038;53.064;8.624;2023-03-14T00:15:20;9.67;;;4.33;;
9997;SDS011;5038;53.064;8.624;2023-03-14T00:17:48;8.70;;;4.50;;
9997;SDS011;5038;53.064;8.624;2023-03-14T00:20:16;9.67;;;4.60;;
9997;SDS011;5038;53.064;8.624;2023-03-14T00:22:44;7.03;;;3.63;;
9997;SDS011;5038;53.064;8.624;2023-03-14T00:25:12;12.73;;;5.00;;
9997;SDS011;5038;53.064;8.624;2023-03-14T00:27:40;10.03;;;5.50;;
9997;SDS011;5038;53.064;8.624;2023-03-14T00:30:11;11.90;;;4.53;;
9997;SDS011;5038;53.064;8.624;2023-03-14T00:32:41;8.50;;;3.77;;
9997;SDS011;5038;53.064;8.624;2023-03-14T00:35:10;9.83;;;4.70;;
9997;SDS011;5038;53.064;8.624;2023-03-14T00:37:38;8.03;;;4.17;;
9997;SDS011;5038;53.064;8.624;2023-03-14T00:40:07;8.77;;;4.90;;
9997;SDS011;5038;53.064;8.624;2023-03-14T00:42:36;10.37;;;4.77;;
9997;SDS011;5038;53.064;8.624;2023-03-14T00:45:05;9.67;;;4.43;;
9997;SDS011;5038;53.064;8.624;2023-03-14T00:47:35;10.40;;;4.47;;
9997;SDS011;5038;53.064;8.624;2023-03-14T00:50:05;8.47;;;5.00;;
9997;SDS011;5038;53.064;8.624;2023-03-14T00:52:34;7.70;;;4.20;;
9997;SDS011;5038;53.064;8.624;2023-03-14T00:55:02;8.40;;;3.93;;
9997;SDS011;5038;53.064;8.624;2023-03-14T00:57:31;10.90;;;4.87;;
9997;SDS011;5038;53.064;8.624;2023-03-14T01:00:01;10.00;;;5.03;;
9997;SDS011;5038;53.064;8.624;2023-03-14T01:02:34;7.27;;;4.73;;
9997;SDS011;5038;53.064;8.624;2023-03-14T01:05:03;9.10;;;5.53;;
9997;SDS011;5038;53.064;8.624;2023-03-14T01:07:33;8.70;;;5.43;;
9997;SDS011;5038;53.064;8.624;2023-03-14T01:10:01;12.40;;;5.70;;
9997;SDS011;5038;53.064;8.624;2023-03-14T01:12:30;7.40;;;5.73;;
9997;SDS011;5038;53.064;8.624;2023-03-14T01:15:01;9.40;;;5.67;;
9997;SDS011;5038;53.064;8.624;2023-03-14T01:17:29;8.03;;;5.10;;
9997;SDS011;5038;53.064;8.624;2023-03-14T01:19:57;11.80;;;6.23;;
9997;SDS011;5038;53.064;8.624;2023-03-14T01:22:28;10.37;;;6.03;;
9997;SDS011;5038;53.064;8.624;2023-03-14T01:24:56;9.33;;;6.90;;
9997;SDS011;5038;53.064;8.624;2023-03-14T01:27:24;9.33;;;6.30;;
9997;SDS011;5038;53.064;8.624;2023-03-14T01:29:53;9.53;;;7.00;;
9997;SDS011;5038;53.064;8.624;2023-03-14T01:32:21;10.20;;;6.93;;
9997;SDS011;5038;53.064;8.624;2023-03-14T01:34:51;11.57;;;6.50;;
9997;SDS011;5038;53.064;8.624;2023-03-14T01:37:20;10.10;;;8.10;;
9997;SDS011;5038;53.064;8.624;2023-03-14T01:39:49;11.83;;;8.13;;
9997;SDS011;5038;53.064;8.624;2023-03-14T01:42:18;10.90;;;7.57;;
9997;SDS011;5038;53.064;8.624;2023-03-14T01:44:48;12.13;;;7.37;;
9997;SDS011;5038;53.064;8.624;2023-03-14T01:47:17;11.20;;;6.60;;
9997;SDS011;5038;53.064;8.624;2023-03-14T01:49:46;11.53;;;6.70;;
9997;SDS011;5038;53.064;8.624;2023-03-14T01:52:18;10.57;;;7.27;;
9997;SDS011;5038;53.064;8.624;2023-03-14T01:54:51;12.23;;;6.87;;
9997;SDS011;5038;53.064;8.624;2023-03-14T01:57:23;11.20;;;7.60;;
9997;SDS011;5038;53.064;8.624;2023-03-14T01:59:57;9.80;;;6.90;;
9997;SDS011;5038;53.064;8.624;2023-03-14T02:02:38;11.67;;;7.00;;
9997;SDS011;5038;53.064;8.624;2023-03-14T02:05:10;10.50;;;7.93;;
9997;SDS011;5038;53.064;8.624;2023-03-14T02:07:44;10.20;;;6.60;;
9997;SDS011;5038;53.064;8.624;2023-03-14T02:10:22;11.97;;;6.83;;
9997;SDS011;5038;53.064;8.624;2023-03-14T02:12:56;11.00;;;7.20;;
9997;SDS011;5038;53.064;8.624;2023-03-14T02:15:36;7.60;;;6.40;;
9997;SDS011;5038;53.064;8.624;2023-03-14T02:18:12;11.10;;;7.10;;
9997;SDS011;5038;53.064;8.624;2023-03-14T02:20:51;8.03;;;6.37;;
9997;SDS011;5038;53.064;8.624;2023-03-14T02:23:26;9.20;;;6.90;;
9997;SDS011;5038;53.064;8.624;2023-03-14T02:26:03;9.20;;;7.30;;
9997;SDS011;5038;53.064;8.624;2023-03-14T02:28:37;8.83;;;6.97;;
9997;SDS011;5038;53.064;8.624;2023-03-14T02:31:06;9.67;;;6.90;;
9997;SDS011;5038;53.064;8.624;2023-03-14T02:33:35;12.93;;;7.10;;
9997;SDS011;5038;53.064;8.624;2023-03-14T02:36:07;8.83;;;6.90;;
9997;SDS011;5038;53.064;8.624;2023-03-14T02:38:39;9.20;;;6.77;;
9997;SDS011;5038;53.064;8.624;2023-03-14T02:41:14;16.60;;;8.40;;
9997;SDS011;5038;53.064;8.624;2023-03-14T02:43:50;10.70;;;6.80;;
9997;SDS011;5038;53.064;8.624;2023-03-14T02:46:19;9.07;;;7.17;;
9997;SDS011;5038;53.064;8.624;2023-03-14T02:48:50;11.20;;;7.30;;
9997;SDS011;5038;53.064;8.624;2023-03-14T02:51:21;11.03;;;7.10;;
9997;SDS011;5038;53.064;8.624;2023-03-14T02:53:50;10.33;;;7.67;;
9997;SDS011;5038;53.064;8.624;2023-03-14T02:56:20;13.80;;;7.43;;
9997;SDS011;5038;53.064;8.624;2023-03-14T02:58:50;9.33;;;6.50;;
9997;SDS011;5038;53.064;8.624;2023-03-14T03:01:38;10.20;;;6.47;;
9997;SDS011;5038;53.064;8.624;2023-03-14T03:04:07;11.40;;;6.53;;
9997;SDS011;5038;53.064;8.624;2023-03-14T03:06:36;8.73;;;6.30;;
9997;SDS011;5038;53.064;8.624;2023-03-14T03:09:04;8.73;;;5.30;;
9997;SDS011;5038;53.064;8.624;2023-03-14T03:11:32;8.07;;;5.10;;
9997;SDS011;5038;53.064;8.624;2023-03-14T03:14:06;10.50;;;5.00;;
9997;SDS011;5038;53.064;8.624;2023-03-14T03:16:34;9.00;;;5.37;;
9997;SDS011;5038;53.064;8.624;2023-03-14T03:19:03;7.70;;;4.80;;
9997;SDS011;5038;53.064;8.624;2023-03-14T03:21:31;9.30;;;5.40;;
9997;SDS011;5038;53.064;8.624;2023-03-14T03:23:59;7.33;;;5.00;;
9997;SDS011;5038;53.064;8.624;2023-03-14T03:26:27;10.00;;;4.73;;
9997;SDS011;5038;53.064;8.624;2023-03-14T03:28:55;8.43;;;4.40;;
9997;SDS011;5038;53.064;8.624;2023-03-14T03:31:25;7.17;;;4.63;;
9997;SDS011;5038;53.064;8.624;2023-03-14T03:33:53;6.70;;;4.23;;
9997;SDS011;5038;53.064;8.624;2023-03-14T03:36:23;9.40;;;3.63;;
9997;SDS011;5038;53.064;8.624;2023-03-14T03:38:53;7.73;;;3.67;;
9997;SDS011;5038;53.064;8.624;2023-03-14T03:41:21;7.23;;;3.67;;
9997;SDS011;5038;53.064;8.624;2023-03-14T03:43:50;4.07;;;2.20;;
9997;SDS011;5038;53.064;8.624;2023-03-14T03:46:20;5.60;;;2.40;;
9997;SDS011;5038;53.064;8.624;2023-03-14T03:48:54;5.50;;;2.43;;
9997;SDS011;5038;53.064;8.624;2023-03-14T03:51:24;7.17;;;2.97;;
9997;SDS011;5038;53.064;8.624;2023-03-14T03:53:53;6.43;;;2.70;;
9997;SDS011;5038;53.064;8.624;2023-03-14T03:56:28;5.80;;;2.57;;
9997;SDS011;5038;53.064;8.624;2023-03-14T03:59:00;6.00;;;2.17;;
9997;SDS011;5038;53.064;8.624;2023-03-14T04:01:28;7.23;;;2.80;;
9997;SDS011;5038;53.064;8.624;2023-03-14T04:04:00;8.63;;;3.90;;
9997;SDS011;5038;53.064;8.624;2023-03-14T04:06:28;6.03;;;3.47;;
9997;SDS011;5038;53.064;8.624;2023-03-14T04:08:59;8.00;;;4.17;;
9997;SDS011;5038;53.064;8.624;2023-03-14T04:11:36;7.67;;;4.70;;
9997;SDS011;5038;53.064;8.624;2023-03-14T04:14:14;8.33;;;4.70;;
9997;SDS011;5038;53.064;8.624;2023-03-14T04:16:42;9.30;;;4.87;;
9997;SDS011;5038;53.064;8.624;2023-03-14T04:19:15;6.87;;;3.70;;
9997;SDS011;5038;53.064;8.624;2023-03-14T04:21:45;11.20;;;4.40;;
9997;SDS011;5038;53.064;8.624;2023-03-14T04:24:13;6.93;;;4.20;;
9997;SDS011;5038;53.064;8.624;2023-03-14T04:26:45;8.03;;;4.10;;
9997;SDS011;5038;53.064;8.624;2023-03-14T04:29:13;7.50;;;3.60;;
9997;SDS011;5038;53.064;8.624;2023-03-14T04:31:43;7.53;;;3.80;;
9997;SDS011;5038;53.064;8.624;2023-03-14T04:34:11;8.20;;;4.47;;
9997;SDS011;5038;53.064;8.624;2023-03-14T04:36:50;5.83;;;3.50;;
9997;SDS011;5038;53.064;8.624;2023-03-14T04:39:24;7.70;;;4.10;;
9997;SDS011;5038;53.064;8.624;2023-03-14T04:42:01;9.63;;;3.90;;
9997;SDS011;5038;53.064;8.624;2023-03-14T04:44:29;6.83;;;3.20;;
9997;SDS011;5038;53.064;8.624;2023-03-14T04:46:57;7.70;;;4.10;;
9997;SDS011;5038;53.064;8.624;2023-03-14T04:49:26;7.90;;;3.67;;
9997;SDS011;5038;53.064;8.624;2023-03-14T04:51:56;5.97;;;3.47;;
9997;SDS011;5038;53.064;8.624;2023-03-14T04:54:26;9.67;;;4.20;;
9997;SDS011;5038;53.064;8.624;2023-03-14T04:56:57;9.03;;;3.90;;
9997;SDS011;5038;53.064;8.624;2023-03-14T04:59:29;8.67;;;3.13;;
9997;SDS011;5038;53.064;8.624;2023-03-14T05:02:06;6.47;;;3.00;;
9997;SDS011;5038;53.064;8.624;2023-03-14T05:04:52;7.40;;;3.73;;
9997;SDS011;5038;53.064;8.624;2023-03-14T05:07:39;8.20;;;3.47;;
9997;SDS011;5038;53.064;8.624;2023-03-14T05:10:35;9.83;;;4.03;;
9997;SDS011;5038;53.064;8.624;2023-03-14T05:13:24;5.80;;;3.00;;
9997;SDS011;5038;53.064;8.624;2023-03-14T05:16:05;6.83;;;3.23;;
9997;SDS011;5038;53.064;8.624;2023-03-14T05:18:46;7.30;;;2.67;;
9997;SDS011;5038;53.064;8.624;2023-03-14T05:21:38;6.37;;;2.80;;
9997;SDS011;5038;53.064;8.624;2023-03-14T05:24:10;6.70;;;2.87;;
9997;SDS011;5038;53.064;8.624;2023-03-14T05:27:16;7.40;;;3.03;;
9997;SDS011;5038;53.064;8.624;2023-03-14T05:29:59;7.03;;;2.70;;
9997;SDS011;5038;53.064;8.624;2023-03-14T05:32:42;7.37;;;2.93;;
9997;SDS011;5038;53.064;8.624;2023-03-14T05:35:36;6.37;;;2.70;;
9997;SDS011;5038;53.064;8.624;2023-03-14T05:38:23;6.80;;;2.80;;
9997;SDS011;5038;53.064;8.624;2023-03-14T05:41:07;7.23;;;2.90;;
9997;SDS011;5038;53.064;8.624;2023-03-14T05:43:56;7.27;;;2.80;;
9997;SDS011;5038;53.064;8.624;2023-03-14T05:46:59;5.47;;;2.57;;
9997;SDS011;5038;53.064;8.624;2023-03-14T05:49:40;5.37;;;2.10;;
9997;SDS011;5038;53.064;8.624;2023-03-14T05:52:20;7.13;;;3.13;;
9997;SDS011;5038;53.064;8.624;2023-03-14T05:55:00;8.80;;;3.03;;
9997;SDS011;5038;53.064;8.624;2023-03-14T05:58:03;8.30;;;2.60;;
9997;SDS011;5038;53.064;8.624;2023-03-14T06:00:44;8.77;;;2.70;;
9997;SDS011;5038;53.064;8.624;2023-03-14T06:03:22;4.50;;;1.87;;
9997;SDS011;5038;53.064;8.624;2023-03-14T06:05:51;6.50;;;1.87;;
9997;SDS011;5038;53.064;8.624;2023-03-14T06:08:21;5.83;;;2.37;;
9997;SDS011;5038;53.064;8.624;2023-03-14T06:10:50;4.70;;;2.07;;
9997;SDS011;5038;53.064;8.624;2023-03-14T06:13:24;8.03;;;2.03;;
9997;SDS011;5038;53.064;8.624;2023-03-14T06:15:52;5.90;;;1.93;;
9997;SDS011;5038;53.064;8.624;2023-03-14T06:18:24;8.83;;;2.80;;
9997;SDS011;5038;53.064;8.624;2023-03-14T06:20:53;6.07;;;2.10;;
9997;SDS011;5038;53.064;8.624;2023-03-14T06:23:25;5.33;;;2.13;;
9997;SDS011;5038;53.064;8.624;2023-03-14T06:26:12;5.73;;;1.90;;
9997;SDS011;5038;53.064;8.624;2023-03-14T06:28:43;8.27;;;2.40;;
9997;SDS011;5038;53.064;8.624;2023-03-14T06:31:12;6.60;;;2.10;;
9997;SDS011;5038;53.064;8.624;2023-03-14T06:33:49;5.70;;;1.97;;
9997;SDS011;5038;53.064;8.624;2023-03-14T06:36:18;4.20;;;2.03;;
9997;SDS011;5038;53.064;8.624;2023-03-14T06:38:47;5.90;;;2.60;;
9997;SDS011;5038;53.064;8.624;2023-03-14T06:41:16;6.87;;;2.70;;
9997;SDS011;5038;53.064;8.624;2023-03-14T06:43:48;6.53;;;2.83;;
9997;SDS011;5038;53.064;8.624;2023-03-14T06:46:17;5.60;;;2.53;;
9997;SDS011;5038;53.064;8.624;2023-03-14T06:48:45;5.40;;;2.40;;
9997;SDS011;5038;53.064;8.624;2023-03-14T06:51:13;6.47;;;2.37;;
9997;SDS011;5038;53.064;8.624;2023-03-14T06:53:41;10.67;;;2.97;;
9997;SDS011;5038;53.064;8.624;2023-03-14T06:56:13;6.97;;;2.97;;
9997;SDS011;5038;53.064;8.624;2023-03-14T06:58:41;6.20;;;2.83;;
9997;SDS011;5038;53.064;8.624;2023-03-14T07:01:19;7.20;;;3.20;;
9997;SDS011;5038;53.064;8.624;2023-03-14T07:03:51;6.03;;;2.87;;
9997;SDS011;5038;53.064;8.624;2023-03-14T07:06:21;5.10;;;3.07;;
9997;SDS011;5038;53.064;8.624;2023-03-14T07:08:49;7.23;;;3.60;;
9997;SDS011;5038;53.064;8.624;2023-03-14T07:11:18;6.93;;;3.20;;
9997;SDS011;5038;53.064;8.624;2023-03-14T07:13:46;7.67;;;3.50;;
9997;SDS011;5038;53.064;8.624;2023-03-14T07:16:15;6.47;;;3.00;;
9997;SDS011;5038;53.064;8.624;2023-03-14T07:18:44;6.87;;;3.50;;
9997;SDS011;5038;53.064;8.624;2023-03-14T07:21:14;7.13;;;3.10;;
9997;SDS011;5038;53.064;8.624;2023-03-14T07:23:42;7.20;;;3.53;;
9997;SDS011;5038;53.064;8.624;2023-03-14T07:26:12;10.43;;;3.53;;
9997;SDS011;5038;53.064;8.624;2023-03-14T07:28:45;6.23;;;2.80;;
9997;SDS011;5038;53.064;8.624;2023-03-14T07:31:20;11.93;;;3.57;;
9997;SDS011;5038;53.064;8.624;2023-03-14T07:33:51;6.77;;;3.30;;
9997;SDS011;5038;53.064;8.624;2023-03-14T07:36:21;10.53;;;3.53;;
9997;SDS011;5038;53.064;8.624;2023-03-14T07:38:50;10.37;;;3.73;;
9997;SDS011;5038;53.064;8.624;2023-03-14T07:41:18;7.00;;;3.27;;
9997;SDS011;5038;53.064;8.624;2023-03-14T07:44:06;7.57;;;3.03;;
9997;SDS011;5038;53.064;8.624;2023-03-14T07:46:34;12.40;;;4.53;;
9997;SDS011;5038;53.064;8.624;2023-03-14T07:49:04;9.77;;;3.60;;
9997;SDS011;5038;53.064;8.624;2023-03-14T07:51:32;7.50;;;3.17;;
9997;SDS011;5038;53.064;8.624;2023-03-14T07:54:00;8.53;;;3.23;;
9997;SDS011;5038;53.064;8.624;2023-03-14T07:56:31;9.93;;;3.47;;
9997;SDS011;5038;53.064;8.624;2023-03-14T07:58:59;7.40;;;2.83;;
9997;SDS011;5038;53.064;8.624;2023-03-14T08:01:29;7.30;;;2.87;;
9997;SDS011;5038;53.064;8.624;2023-03-14T08:04:00;9.93;;;3.40;;
9997;SDS011;5038;53.064;8.624;2023-03-14T08:06:30;9.10;;;3.67;;
9997;SDS011;5038;53.064;8.624;2023-03-14T08:09:00;8.77;;;3.43;;
9997;SDS011;5038;53.064;8.624;2023-03-14T08:11:29;6.93;;;2.97;;
9997;SDS011;5038;53.064;8.624;2023-03-14T08:13:57;8.33;;;3.40;;
9997;SDS011;5038;53.064;8.624;2023-03-14T08:16:25;7.60;;;2.97;;
9997;SDS011;5038;53.064;8.624;2023-03-14T08:18:54;7.57;;;3.13;;
9997;SDS011;5038;53.064;8.624;2023-03-14T08:21:22;8.37;;;3.10;;
9997;SDS011;5038;53.064;8.624;2023-03-14T08:23:51;8.90;;;3.10;;
9997;SDS011;5038;53.064;8.624;2023-03-14T08:26:20;9.27;;;3.70;;
9997;SDS011;5038;53.064;8.624;2023-03-14T08:28:48;9.33;;;2.90;;
9997;SDS011;5038;53.064;8.624;2023-03-14T08:31:16;8.40;;;2.70;;
9997;SDS011;5038;53.064;8.624;2023-03-14T08:33:45;8.73;;;3.67;;
9997;SDS011;5038;53.064;8.624;2023-03-14T08:36:13;9.50;;;2.83;;
9997;SDS011;5038;53.064;8.624;2023-03-14T08:38:41;6.97;;;2.70;;
9997;SDS011;5038;53.064;8.624;2023-03-14T08:41:11;6.97;;;2.67;;
9997;SDS011;5038;53.064;8.624;2023-03-14T08:43:39;8.27;;;2.73;;
9997;SDS011;5038;53.064;8.624;2023-03-14T08:46:07;8.83;;;3.20;;
9997;SDS011;5038;53.064;8.624;2023-03-14T08:48:35;6.40;;;2.30;;
9997;SDS011;5038;53.064;8.624;2023-03-14T08:51:04;9.37;;;3.00;;
9997;SDS011;5038;53.064;8.624;2023-03-14T08:53:33;7.10;;;3.07;;
9997;SDS011;5038;53.064;8.624;2023-03-14T08:56:01;6.40;;;2.73;;
9997;SDS011;5038;53.064;8.624;2023-03-14T08:58:33;7.37;;;3.07;;
9997;SDS011;5038;53.064;8.624;2023-03-14T09:01:04;7.70;;;2.73;;
9997;SDS011;5038;53.064;8.624;2023-03-14T09:03:32;9.47;;;3.17;;
9997;SDS011;5038;53.064;8.624;2023-03-14T09:06:01;4.17;;;1.83;;
9997;SDS011;5038;53.064;8.624;2023-03-14T09:08:33;5.50;;;1.53;;
9997;SDS011;5038;53.064;8.624;2023-03-14T09:11:06;6.73;;;2.00;;
9997;SDS011;5038;53.064;8.624;2023-03-14T09:13:36;6.90;;;2.07;;
9997;SDS011;5038;53.064;8.624;2023-03-14T09:16:05;6.57;;;1.67;;
9997;SDS011;5038;53.064;8.624;2023-03-14T09:18:34;8.83;;;2.27;;
9997;SDS011;5038;53.064;8.624;2023-03-14T09:21:03;6.53;;;2.00;;
9997;SDS011;5038;53.064;8.624;2023-03-14T09:23:31;4.90;;;1.30;;
9997;SDS011;5038;53.064;8.624;2023-03-14T09:26:00;6.60;;;2.40;;
9997;SDS011;5038;53.064;8.624;2023-03-14T09:28:29;8.80;;;2.10;;
9997;SDS011;5038;53.064;8.624;2023-03-14T09:30:58;6.50;;;2.30;;
9997;SDS011;5038;53.064;8.624;2023-03-14T09:33:34;9.07;;;2.30;;
9997;SDS011;5038;53.064;8.624;2023-03-14T09:36:02;4.13;;;1.60;;
9997;SDS011;5038;53.064;8.624;2023-03-14T09:38:31;6.27;;;1.30;;
9997;SDS011;5038;53.064;8.624;2023-03-14T09:41:00;4.70;;;1.20;;
9997;SDS011;5038;53.064;8.624;2023-03-14T09:43:31;4.77;;;1.20;;
9997;SDS011;5038;53.064;8.624;2023-03-14T09:46:02;6.90;;;1.00;;
9997;SDS011;5038;53.064;8.624;2023-03-14T09:48:32;3.33;;;0.60;;
9997;SDS011;5038;53.064;8.624;2023-03-14T09:51:03;4.00;;;0.60;;
9997;SDS011;5038;53.064;8.624;2023-03-14T09:53:39;2.93;;;0.70;;
9997;SDS011;5038;53.064;8.624;2023-03-14T09:56:11;2.63;;;0.60;;
9997;SDS011;5038;53.064;8.624;2023-03-14T09:58:41;3.83;;;0.50;;
9997;SDS011;5038;53.064;8.624;2023-03-14T10:01:13;2.60;;;0.50;;
9997;SDS011;5038;53.064;8.624;2023-03-14T10:03:45;3.30;;;0.93;;
9997;SDS011;5038;53.064;8.624;2023-03-14T10:06:14;2.53;;;0.50;;
9997;SDS011;5038;53.064;8.624;2023-03-14T10:08:43;2.73;;;0.53;;
9997;SDS011;5038;53.064;8.624;2023-03-14T10:11:13;2.57;;;0.53;;
9997;SDS011;5038;53.064;8.624;2023-03-14T10:13:50;3.53;;;0.70;;
9997;SDS011;5038;53.064;8.624;2023-03-14T10:16:32;3.37;;;0.70;;
9997;SDS011;5038;53.064;8.624;2023-03-14T10:19:03;3.83;;;0.90;;
9997;SDS011;5038;53.064;8.624;2023-03-14T10:21:35;2.67;;;0.50;;
9997;SDS011;5038;53.064;8.624;2023-03-14T10:26:59;4.50;;;0.70;;
9997;SDS011;5038;53.064;8.624;2023-03-14T10:29:29;4.17;;;0.90;;
9997;SDS011;5038;53.064;8.624;2023-03-14T10:32:00;7.03;;;1.97;;
9997;SDS011;5038;53.064;8.624;2023-03-14T10:34:32;3.00;;;0.50;;
9997;SDS011;5038;53.064;8.624;2023-03-14T10:37:05;4.40;;;0.60;;
9997;SDS011;5038;53.064;8.624;2023-03-14T10:39:37;3.57;;;0.80;;
9997;SDS011;5038;53.064;8.624;2023-03-14T10:42:15;3.87;;;0.80;;
9997;SDS011;5038;53.064;8.624;2023-03-14T10:44:48;4.30;;;1.20;;
9997;SDS011;5038;53.064;8.624;2023-03-14T10:47:24;4.30;;;0.90;;
9997;SDS011;5038;53.064;8.624;2023-03-14T10:49:55;3.40;;;0.90;;
9997;SDS011;5038;53.064;8.624;2023-03-14T10:52:25;4.80;;;1.27;;
9997;SDS011;5038;53.064;8.624;2023-03-14T10:55:14;6.33;;;1.27;;
9997;SDS011;5038;53.064;8.624;2023-03-14T10:57:43;5.60;;;1.87;;
9997;SDS011;5038;53.064;8.624;2023-03-14T11:00:14;5.70;;;2.47;;
9997;SDS011;5038;53.064;8.624;2023-03-14T11:02:49;3.83;;;1.50;;
9997;SDS011;5038;53.064;8.624;2023-03-14T11:05:28;5.70;;;1.50;;
9997;SDS011;5038;53.064;8.624;2023-03-14T11:08:01;5.10;;;1.20;;
9997;SDS011;5038;53.064;8.624;2023-03-14T11:10:35;4.70;;;1.43;;
9997;SDS011;5038;53.064;8.624;2023-03-14T11:13:13;5.57;;;1.10;;
9997;SDS011;5038;53.064;8.624;2023-03-14T11:15:47;7.33;;;1.20;;
9997;SDS011;5038;53.064;8.624;2023-03-14T11:18:27;6.60;;;1.50;;
9997;SDS011;5038;53.064;8.624;2023-03-14T11:21:18;4.83;;;1.30;;
9997;SDS011;5038;53.064;8.624;2023-03-14T11:23:55;5.40;;;1.77;;
9997;SDS011;5038;53.064;8.624;2023-03-14T11:26:32;8.43;;;1.53;;
9997;SDS011;5038;53.064;8.624;2023-03-14T11:29:12;10.03;;;2.50;;
9997;SDS011;5038;53.064;8.624;2023-03-14T11:31:48;9.70;;;1.80;;
9997;SDS011;5038;53.064;8.624;2023-03-14T11:34:20;7.03;;;1.80;;
9997;SDS011;5038;53.064;8.624;2023-03-14T11:36:56;5.97;;;1.77;;
9997;SDS011;5038;53.064;8.624;2023-03-14T11:39:29;9.20;;;2.17;;
9997;SDS011;5038;53.064;8.624;2023-03-14T11:42:07;9.80;;;2.73;;
9997;SDS011;5038;53.064;8.624;2023-03-14T11:44:40;6.80;;;2.13;;
9997;SDS011;5038;53.064;8.624;2023-03-14T11:47:10;9.17;;;2.33;;
9997;SDS011;5038;53.064;8.624;2023-03-14T11:49:45;8.77;;;2.23;;
9997;SDS011;5038;53.064;8.624;2023-03-14T11:52:19;11.37;;;3.00;;
9997;SDS011;5038;53.064;8.624;2023-03-14T11:54:51;13.13;;;3.60;;
9997;SDS011;5038;53.064;8.624;2023-03-14T11:57:24;13.83;;;3.93;;
9997;SDS011;5038;53.064;8.624;2023-03-14T11:59:52;14.77;;;4.70;;
9997;SDS011;5038;53.064;8.624;2023-03-14T12:02:25;11.73;;;3.13;;
9997;SDS011;5038;53.064;8.624;2023-03-14T12:08:08;15.20;;;4.03;;
9997;SDS011;5038;53.064;8.624;2023-03-14T12:10:58;12.50;;;3.23;;
9997;SDS011;5038;53.064;8.624;2023-03-14T12:13:31;17.43;;;4.63;;
9997;SDS011;5038;53.064;8.624;2023-03-14T12:16:03;20.20;;;4.53;;
9997;SDS011;5038;53.064;8.624;2023-03-14T12:18:34;15.43;;;4.10;;
9997;SDS011;5038;53.064;8.624;2023-03-14T12:21:07;16.63;;;5.03;;
9997;SDS011;5038;53.064;8.624;2023-03-14T12:23:40;13.73;;;4.03;;
9997;SDS011;5038;53.064;8.624;2023-03-14T12:26:13;16.73;;;4.50;;
9997;SDS011;5038;53.064;8.624;2023-03-14T12:28:44;17.57;;;4.33;;
9997;SDS011;5038;53.064;8.624;2023-03-14T12:31:38;16.47;;;4.60;;
9997;SDS011;5038;53.064;8.624;2023-03-14T12:34:29;15.97;;;4.57;;
9997;SDS011;5038;53.064;8.624;2023-03-14T12:37:05;15.73;;;4.63;;
9997;SDS011;5038;53.064;8.624;2023-03-14T12:39:44;11.03;;;3.73;;
9997;SDS011;5038;53.064;8.624;2023-03-14T12:42:20;11.30;;;3.80;;
9997;SDS011;5038;53.064;8.624;2023-03-14T12:45:14;12.30;;;3.83;;
9997;SDS011;5038;53.064;8.624;2023-03-14T12:48:06;8.60;;;3.10;;
9997;SDS011;5038;53.064;8.624;2023-03-14T12:50:40;13.97;;;3.27;;
9997;SDS011;5038;53.064;8.624;2023-03-14T12:53:26;9.97;;;3.30;;
9997;SDS011;5038;53.064;8.624;2023-03-14T12:56:21;8.33;;;2.90;;
9997;SDS011;5038;53.064;8.624;2023-03-14T12:59:04;6.73;;;2.47;;
9997;SDS011;5038;53.064;8.624;2023-03-14T13:01:46;12.10;;;2.90;;
9997;SDS011;5038;53.064;8.624;2023-03-14T13:04:22;12.70;;;3.20;;
9997;SDS011;5038;53.064;8.624;2023-03-14T13:07:10;8.93;;;2.73;;
9997;SDS011;5038;53.064;8.624;2023-03-14T13:12:56;10.40;;;2.67;;
9997;SDS011;5038;53.064;8.624;2023-03-14T13:15:29;9.20;;;3.30;;
9997;SDS011;5038;53.064;8.624;2023-03-14T13:18:01;12.87;;;3.07;;
9997;SDS011;5038;53.064;8.624;2023-03-14T13:20:36;9.90;;;2.60;;
9997;SDS011;5038;53.064;8.624;2023-03-14T13:23:18;14.00;;;3.20;;
9997;SDS011;5038;53.064;8.624;2023-03-14T13:25:47;12.20;;;3.00;;
9997;SDS011;5038;53.064;8.624;2023-03-14T13:28:17;10.87;;;2.87;;
9997;SDS011;5038;53.064;8.624;2023-03-14T13:30:47;7.83;;;2.40;;
9997;SDS011;5038;53.064;8.624;2023-03-14T13:33:17;7.47;;;2.37;;
9997;SDS011;5038;53.064;8.624;2023-03-14T13:35:47;9.77;;;2.30;;
9997;SDS011;5038;53.064;8.624;2023-03-14T13:38:18;7.47;;;2.73;;
9997;SDS011;5038;53.064;8.624;2023-03-14T13:40:47;11.40;;;2.80;;
9997;SDS011;5038;53.064;8.624;2023-03-14T13:43:27;8.93;;;2.70;;
9997;SDS011;5038;53.064;8.624;2023-03-14T13:46:00;8.40;;;2.50;;
9997;SDS011;5038;53.064;8.624;2023-03-14T13:48:32;8.30;;;2.30;;
9997;SDS011;5038;53.064;8.624;2023-03-14T13:51:04;8.30;;;2.73;;
9997;SDS011;5038;53.064;8.624;2023-03-14T13:53:41;9.30;;;2.47;;
9997;SDS011;5038;53.064;8.624;2023-03-14T13:56:11;8.70;;;3.27;;
9997;SDS011;5038;53.064;8.624;2023-03-14T13:58:41;9.80;;;2.77;;
9997;SDS011;5038;53.064;8.624;2023-03-14T14:01:11;7.63;;;2.17;;
9997;SDS011;5038;53.064;8.624;2023-03-14T14:03:44;10.17;;;2.50;;
9997;SDS011;5038;53.064;8.624;2023-03-14T14:06:21;5.93;;;1.93;;
9997;SDS011;5038;53.064;8.624;2023-03-14T14:09:00;7.77;;;2.70;;
9997;SDS011;5038;53.064;8.624;2023-03-14T14:11:38;6.70;;;2.50;;
9997;SDS011;5038;53.064;8.624;2023-03-14T14:14:24;7.63;;;2.87;;
9997;SDS011;5038;53.064;8.624;2023-03-14T14:16:56;8.57;;;3.03;;
9997;SDS011;5038;53.064;8.624;2023-03-14T14:19:27;10.00;;;3.17;;
9997;SDS011;5038;53.064;8.624;2023-03-14T14:21:57;8.47;;;2.20;;
9997;SDS011;5038;53.064;8.624;2023-03-14T14:24:28;7.00;;;3.00;;
9997;SDS011;5038;53.064;8.624;2023-03-14T14:27:01;8.33;;;2.27;;
9997;SDS011;5038;53.064;8.624;2023-03-14T14:29:37;10.33;;;2.40;;
9997;SDS011;5038;53.064;8.624;2023-03-14T14:32:10;11.17;;;3.30;;
9997;SDS011;5038;53.064;8.624;2023-03-14T14:34:40;13.13;;;3.30;;
9997;SDS011;5038;53.064;8.624;2023-03-14T14:37:18;12.40;;;3.60;;
9997;SDS011;5038;53.064;8.624;2023-03-14T14:39:50;9.73;;;3.40;;
9997;SDS011;5038;53.064;8.624;2023-03-14T14:42:20;8.73;;;3.30;;
9997;SDS011;5038;53.064;8.624;2023-03-14T14:44:53;13.57;;;2.77;;
9997;SDS011;5038;53.064;8.624;2023-03-14T14:47:23;7.93;;;2.20;;
9997;SDS011;5038;53.064;8.624;2023-03-14T14:49:53;12.10;;;3.00;;
9997;SDS011;5038;53.064;8.624;2023-03-14T14:52:31;9.37;;;3.17;;
9997;SDS011;5038;53.064;8.624;2023-03-14T14:55:11;9.57;;;3.03;;
9997;SDS011;5038;53.064;8.624;2023-03-14T14:57:40;13.23;;;2.87;;
9997;SDS011;5038;53.064;8.624;2023-03-14T15:00:19;5.13;;;2.20;;
9997;SDS011;5038;53.064;8.624;2023-03-14T15:02:49;7.10;;;2.40;;
9997;SDS011;5038;53.064;8.624;2023-03-14T15:05:22;7.63;;;2.23;;
9997;SDS011;5038;53.064;8.624;2023-03-14T15:07:52;6.07;;;2.13;;
9997;SDS011;5038;53.064;8.624;2023-03-14T15:10:21;6.20;;;2.30;;
9997;SDS011;5038;53.064;8.624;2023-03-14T15:12:51;8.47;;;2.57;;
9997;SDS011;5038;53.064;8.624;2023-03-14T15:15:20;7.30;;;2.77;;
9997;SDS011;5038;53.064;8.624;2023-03-14T15:17:49;10.07;;;2.47;;
9997;SDS011;5038;53.064;8.624;2023-03-14T15:20:17;7.90;;;2.63;;
9997;SDS011;5038;53.064;8.624;2023-03-14T15:22:46;12.33;;;3.10;;
9997;SDS011;5038;53.064;8.624;2023-03-14T15:25:18;10.37;;;3.10;;
9997;SDS011;5038;53.064;8.624;2023-03-14T15:28:14;11.33;;;2.80;;
9997;SDS011;5038;53.064;8.624;2023-03-14T15:30:47;7.43;;;2.10;;
9997;SDS011;5038;53.064;8.624;2023-03-14T15:33:16;10.43;;;3.00;;
9997;SDS011;5038;53.064;8.624;2023-03-14T15:35:45;9.73;;;2.50;;
9997;SDS011;5038;53.064;8.624;2023-03-14T15:38:14;10.30;;;2.47;;
9997;SDS011;5038;53.064;8.624;2023-03-14T15:40:47;5.83;;;2.27;;
9997;SDS011;5038;53.064;8.624;2023-03-14T15:43:15;10.07;;;3.30;;
9997;SDS011;5038;53.064;8.624;2023-03-14T15:45:44;11.23;;;3.80;;
9997;SDS011;5038;53.064;8.624;2023-03-14T15:48:15;7.90;;;2.40;;
9997;SDS011;5038;53.064;8.624;2023-03-14T15:50:44;8.50;;;2.43;;
9997;SDS011;5038;53.064;8.624;2023-03-14T15:53:13;12.40;;;3.10;;
9997;SDS011;5038;53.064;8.624;2023-03-14T15:55:43;8.70;;;2.83;;